sensor_id;sensor_type;location;lat;lon;timestamp;pressure;altitude;pressure_sealevel;temperature;humidity
75913;BME280;64592;52.168;21.040;2023-02-23T00:03:17;100922.81;;;-0.09;56.37
75913;BME280;64592;52.168;21.040;2023-02-23T00:08:19;100920.28;;;-0.15;56.99
75913;BME280;64592;52.168;21.040;2023-02-23T00:13:22;100918.47;;;-0.13;58.17
75913;BME280;64592;52.168;21.040;2023-02-23T00:18:25;100921.25;;;-0.17;57.95
75913;BME280;64592;52.168;21.040;2023-02-23T00:23:29;100916.00;;;-0.20;57.47
75913;BME280;64592;52.168;21.040;2023-02-23T00:28:31;100910.66;;;-0.17;58.95
75913;BME280;64592;52.168;21.040;2023-02-23T00:33:34;100908.91;;;-0.20;58.31
75913;BME280;64592;52.168;21.040;2023-02-23T00:38:36;100911.69;;;-0.24;58.71
75913;BME280;64592;52.168;21.040;2023-02-23T00:43:40;100906.41;;;-0.26;59.24
75913;BME280;64592;52.168;21.040;2023-02-23T00:48:49;100903.78;;;-0.27;60.05
75913;BME280;64592;52.168;21.040;2023-02-23T00:53:52;100901.97;;;-0.24;59.27
75913;BME280;64592;52.168;21.040;2023-02-23T00:58:55;100902.00;;;-0.25;59.59
75913;BME280;64592;52.168;21.040;2023-02-23T01:03:58;100885.34;;;-0.30;59.82
75913;BME280;64592;52.168;21.040;2023-02-23T01:08:59;100885.44;;;-0.35;60.75
75913;BME280;64592;52.168;21.040;2023-02-23T01:14:04;100886.31;;;-0.34;60.55
75913;BME280;64592;52.168;21.040;2023-02-23T01:19:09;100886.41;;;-0.39;61.70
75913;BME280;64592;52.168;21.040;2023-02-23T01:24:11;100878.47;;;-0.39;61.04
75913;BME280;64592;52.168;21.040;2023-02-23T01:29:14;100874.97;;;-0.41;62.14
75913;BME280;64592;52.168;21.040;2023-02-23T01:34:19;100875.03;;;-0.44;62.04
75913;BME280;64592;52.168;21.040;2023-02-23T01:39:21;100874.41;;;-0.55;62.23
75913;BME280;64592;52.168;21.040;2023-02-23T01:50:06;100862.13;;;-0.59;63.07
75913;BME280;64592;52.168;21.040;2023-02-23T01:55:12;100864.91;;;-0.65;64.80
75913;BME280;64592;52.168;21.040;2023-02-23T02:00:15;100861.47;;;-0.69;65.75
75913;BME280;64592;52.168;21.040;2023-02-23T02:05:20;100850.94;;;-0.72;65.93
75913;BME280;64592;52.168;21.040;2023-02-23T02:10:23;100850.97;;;-0.73;65.92
75913;BME280;64592;52.168;21.040;2023-02-23T02:27:01;100858.25;;;-0.82;68.09
75913;BME280;64592;52.168;21.040;2023-02-23T02:32:34;100848.50;;;-0.81;68.65
75913;BME280;64592;52.168;21.040;2023-02-23T02:43:24;100852.72;;;-0.72;69.29
75913;BME280;64592;52.168;21.040;2023-02-23T02:48:38;100850.97;;;-0.73;69.86
75913;BME280;64592;52.168;21.040;2023-02-23T02:53:47;100843.88;;;-0.71;70.60
75913;BME280;64592;52.168;21.040;2023-02-23T02:58:53;100846.56;;;-0.73;70.42
75913;BME280;64592;52.168;21.040;2023-02-23T03:03:57;100850.88;;;-0.67;71.18
75913;BME280;64592;52.168;21.040;2023-02-23T03:09:24;100848.22;;;-0.67;71.51
75913;BME280;64592;52.168;21.040;2023-02-23T03:14:58;100844.75;;;-0.71;71.26
75913;BME280;64592;52.168;21.040;2023-02-23T03:20:27;100844.78;;;-0.72;71.83
75913;BME280;64592;52.168;21.040;2023-02-23T03:25:50;100844.75;;;-0.71;72.01
75913;BME280;64592;52.168;21.040;2023-02-23T03:31:17;100847.28;;;-0.66;72.36
75913;BME280;64592;52.168;21.040;2023-02-23T03:36:44;100843.75;;;-0.65;73.15
75913;BME280;64592;52.168;21.040;2023-02-23T03:42:08;100852.59;;;-0.66;73.10
75913;BME280;64592;52.168;21.040;2023-02-23T03:47:33;100850.75;;;-0.63;73.02
75913;BME280;64592;52.168;21.040;2023-02-23T03:52:57;100852.53;;;-0.63;74.49
75913;BME280;64592;52.168;21.040;2023-02-23T03:58:21;100854.19;;;-0.59;74.77
75913;BME280;64592;52.168;21.040;2023-02-23T04:03:43;100861.19;;;-0.55;74.41
75913;BME280;64592;52.168;21.040;2023-02-23T04:09:05;100856.72;;;-0.53;75.20
75913;BME280;64592;52.168;21.040;2023-02-23T04:14:29;100861.06;;;-0.51;75.33
75913;BME280;64592;52.168;21.040;2023-02-23T04:19:31;100857.50;;;-0.50;75.35
75913;BME280;64592;52.168;21.040;2023-02-23T04:24:33;100859.16;;;-0.44;76.01
75913;BME280;64592;52.168;21.040;2023-02-23T04:29:35;100850.38;;;-0.46;76.16
75913;BME280;64592;52.168;21.040;2023-02-23T04:34:38;100847.63;;;-0.42;76.34
75913;BME280;64592;52.168;21.040;2023-02-23T04:39:40;100850.16;;;-0.37;75.46
75913;BME280;64592;52.168;21.040;2023-02-23T04:44:42;100847.56;;;-0.38;75.87
75913;BME280;64592;52.168;21.040;2023-02-23T04:49:46;100845.72;;;-0.35;76.50
75913;BME280;64592;52.168;21.040;2023-02-23T04:54:47;100842.19;;;-0.35;75.75
75913;BME280;64592;52.168;21.040;2023-02-23T04:59:49;100849.19;;;-0.33;76.54
75913;BME280;64592;52.168;21.040;2023-02-23T05:04:52;100844.03;;;-0.37;76.27
75913;BME280;64592;52.168;21.040;2023-02-23T05:09:54;100842.28;;;-0.38;76.48
75913;BME280;64592;52.168;21.040;2023-02-23T05:14:55;100843.19;;;-0.41;76.36
75913;BME280;64592;52.168;21.040;2023-02-23T05:19:58;100837.84;;;-0.38;76.86
75913;BME280;64592;52.168;21.040;2023-02-23T05:25:00;100845.72;;;-0.36;77.05
75913;BME280;64592;52.168;21.040;2023-02-23T05:30:04;100831.75;;;-0.42;76.61
75913;BME280;64592;52.168;21.040;2023-02-23T05:35:08;100834.28;;;-0.37;76.85
75913;BME280;64592;52.168;21.040;2023-02-23T05:40:11;100836.88;;;-0.35;76.70
75913;BME280;64592;52.168;21.040;2023-02-23T05:45:13;100847.50;;;-0.37;76.37
75913;BME280;64592;52.168;21.040;2023-02-23T05:50:16;100850.09;;;-0.34;76.17
75913;BME280;64592;52.168;21.040;2023-02-23T05:55:18;100858.06;;;-0.35;76.08
75913;BME280;64592;52.168;21.040;2023-02-23T06:00:20;100847.47;;;-0.35;75.76
75913;BME280;64592;52.168;21.040;2023-02-23T06:05:24;100846.59;;;-0.36;75.36
75913;BME280;64592;52.168;21.040;2023-02-23T06:10:25;100847.41;;;-0.31;75.07
75913;BME280;64592;52.168;21.040;2023-02-23T06:15:27;100846.56;;;-0.34;74.86
75913;BME280;64592;52.168;21.040;2023-02-23T06:20:30;100851.78;;;-0.30;74.72
75913;BME280;64592;52.168;21.040;2023-02-23T06:25:32;100846.38;;;-0.25;75.18
75913;BME280;64592;52.168;21.040;2023-02-23T06:30:34;100866.50;;;-0.18;74.40
75913;BME280;64592;52.168;21.040;2023-02-23T06:35:37;100864.75;;;-0.18;73.57
75913;BME280;64592;52.168;21.040;2023-02-23T06:40:39;100862.09;;;-0.18;73.58
75913;BME280;64592;52.168;21.040;2023-02-23T06:45:41;100858.44;;;-0.14;74.45
75913;BME280;64592;52.168;21.040;2023-02-23T06:50:44;100865.56;;;-0.16;73.38
75913;BME280;64592;52.168;21.040;2023-02-23T06:55:46;100854.00;;;-0.12;74.17
75913;BME280;64592;52.168;21.040;2023-02-23T07:00:47;100859.25;;;-0.10;73.22
75913;BME280;64592;52.168;21.040;2023-02-23T07:05:51;100858.31;;;-0.08;73.61
75913;BME280;64592;52.168;21.040;2023-02-23T07:10:53;100861.75;;;-0.04;73.67
75913;BME280;64592;52.168;21.040;2023-02-23T07:15:56;100858.16;;;-0.02;73.20
75913;BME280;64592;52.168;21.040;2023-02-23T07:21:00;100861.53;;;0.05;73.65
75913;BME280;64592;52.168;21.040;2023-02-23T07:26:01;100857.16;;;0.04;72.88
75913;BME280;64592;52.168;21.040;2023-02-23T07:31:03;100854.47;;;0.06;73.81
75913;BME280;64592;52.168;21.040;2023-02-23T07:36:07;100852.56;;;0.11;72.83
75913;BME280;64592;52.168;21.040;2023-02-23T07:41:09;100843.63;;;0.15;72.98
75913;BME280;64592;52.168;21.040;2023-02-23T07:46:11;100843.31;;;0.27;71.76
75913;BME280;64592;52.168;21.040;2023-02-23T07:51:16;100836.97;;;0.32;72.55
75913;BME280;64592;52.168;21.040;2023-02-23T07:56:17;100831.47;;;0.40;71.33
75913;BME280;64592;52.168;21.040;2023-02-23T08:01:19;100825.09;;;0.47;71.28
75913;BME280;64592;52.168;21.040;2023-02-23T08:06:23;100825.84;;;0.52;71.20
75913;BME280;64592;52.168;21.040;2023-02-23T08:11:25;100815.97;;;0.59;70.55
75913;BME280;64592;52.168;21.040;2023-02-23T08:16:29;100817.41;;;0.70;70.97
75913;BME280;64592;52.168;21.040;2023-02-23T08:21:33;100808.53;;;0.71;70.24
75913;BME280;64592;52.168;21.040;2023-02-23T08:26:34;100799.31;;;0.85;70.80
75913;BME280;64592;52.168;21.040;2023-02-23T08:31:37;100800.97;;;0.89;69.55
75913;BME280;64592;52.168;21.040;2023-02-23T08:36:40;100795.44;;;0.96;69.80
75913;BME280;64592;52.168;21.040;2023-02-23T08:41:44;100790.00;;;1.01;69.45
75913;BME280;64592;52.168;21.040;2023-02-23T08:46:46;100789.88;;;1.04;69.43
75913;BME280;64592;52.168;21.040;2023-02-23T08:51:49;100783.56;;;1.08;69.52
75913;BME280;64592;52.168;21.040;2023-02-23T08:56:54;100778.00;;;1.17;69.01
75913;BME280;64592;52.168;21.040;2023-02-23T09:01:56;100770.56;;;1.28;69.32
75913;BME280;64592;52.168;21.040;2023-02-23T09:06:59;100774.75;;;1.35;69.37
75913;BME280;64592;52.168;21.040;2023-02-23T09:12:01;100762.03;;;1.46;68.55
75913;BME280;64592;52.168;21.040;2023-02-23T09:17:02;100769.72;;;1.55;68.47
75913;BME280;64592;52.168;21.040;2023-02-23T09:22:05;100765.81;;;1.66;68.45
75913;BME280;64592;52.168;21.040;2023-02-23T10:02:23;100725.16;;;2.40;67.46
75913;BME280;64592;52.168;21.040;2023-02-23T10:07:37;100719.56;;;2.47;67.26
75913;BME280;64592;52.168;21.040;2023-02-23T10:12:49;100718.09;;;2.63;67.46
75913;BME280;64592;52.168;21.040;2023-02-23T10:17:59;100717.50;;;2.79;66.28
75913;BME280;64592;52.168;21.040;2023-02-23T10:23:07;100705.66;;;2.87;65.99
75913;BME280;64592;52.168;21.040;2023-02-23T10:28:13;100693.66;;;2.99;66.39
75913;BME280;64592;52.168;21.040;2023-02-23T10:33:21;100687.91;;;3.09;64.79
75913;BME280;64592;52.168;21.040;2023-02-23T10:38:24;100670.63;;;3.20;65.20
75913;BME280;64592;52.168;21.040;2023-02-23T10:43:26;100671.25;;;3.26;64.68
75913;BME280;64592;52.168;21.040;2023-02-23T10:48:33;100666.47;;;3.34;64.50
75913;BME280;64592;52.168;21.040;2023-02-23T10:53:38;100650.00;;;3.46;65.03
75913;BME280;64592;52.168;21.040;2023-02-23T10:58:41;100633.53;;;3.57;64.91
75913;BME280;64592;52.168;21.040;2023-02-23T11:03:47;100629.56;;;3.67;64.00
75913;BME280;64592;52.168;21.040;2023-02-23T11:08:50;100623.50;;;3.84;63.59
75913;BME280;64592;52.168;21.040;2023-02-23T11:13:52;100616.53;;;4.00;62.68
75913;BME280;64592;52.168;21.040;2023-02-23T11:18:57;100614.22;;;4.13;62.48
75913;BME280;64592;52.168;21.040;2023-02-23T11:24:05;100596.84;;;4.23;61.63
75913;BME280;64592;52.168;21.040;2023-02-23T11:29:15;100587.19;;;4.39;61.07
75913;BME280;64592;52.168;21.040;2023-02-23T11:34:28;100585.09;;;4.46;61.17
75913;BME280;64592;52.168;21.040;2023-02-23T11:39:29;100588.59;;;4.48;60.70
75913;BME280;64592;52.168;21.040;2023-02-23T11:44:31;100573.16;;;4.54;60.83
75913;BME280;64592;52.168;21.040;2023-02-23T11:49:35;100560.72;;;4.53;61.23
75913;BME280;64592;52.168;21.040;2023-02-23T11:54:39;100552.28;;;4.62;60.54
75913;BME280;64592;52.168;21.040;2023-02-23T11:59:51;100551.06;;;4.69;60.99
75913;BME280;64592;52.168;21.040;2023-02-23T12:05:04;100543.31;;;4.82;60.04
75913;BME280;64592;52.168;21.040;2023-02-23T12:10:15;100535.97;;;4.87;59.44
75913;BME280;64592;52.168;21.040;2023-02-23T12:15:27;100523.00;;;4.97;58.83
75913;BME280;64592;52.168;21.040;2023-02-23T12:20:36;100513.72;;;5.04;60.44
75913;BME280;64592;52.168;21.040;2023-02-23T12:25:45;100513.34;;;5.12;59.42
75913;BME280;64592;52.168;21.040;2023-02-23T12:30:50;100513.06;;;5.18;58.27
75913;BME280;64592;52.168;21.040;2023-02-23T12:35:59;100491.50;;;5.21;58.58
75913;BME280;64592;52.168;21.040;2023-02-23T12:41:05;100490.50;;;5.23;58.31
75913;BME280;64592;52.168;21.040;2023-02-23T12:46:14;100484.13;;;5.26;58.24
75913;BME280;64592;52.168;21.040;2023-02-23T12:51:27;100481.91;;;5.34;58.54
75913;BME280;64592;52.168;21.040;2023-02-23T12:56:37;100474.84;;;5.33;58.63
75913;BME280;64592;52.168;21.040;2023-02-23T13:01:48;100460.69;;;5.31;58.83
75913;BME280;64592;52.168;21.040;2023-02-23T13:06:56;100452.44;;;5.35;58.62
75913;BME280;64592;52.168;21.040;2023-02-23T13:12:14;100442.69;;;5.34;59.28
75913;BME280;64592;52.168;21.040;2023-02-23T13:17:30;100441.19;;;5.29;58.64
75913;BME280;64592;52.168;21.040;2023-02-23T13:22:42;100434.38;;;5.23;59.20
75913;BME280;64592;52.168;21.040;2023-02-23T13:27:49;100440.50;;;5.25;59.57
75913;BME280;64592;52.168;21.040;2023-02-23T13:32:53;100430.28;;;5.16;59.39
75913;BME280;64592;52.168;21.040;2023-02-23T13:38:03;100410.66;;;5.17;59.95
75913;BME280;64592;52.168;21.040;2023-02-23T13:43:12;100404.25;;;5.20;60.92
75913;BME280;64592;52.168;21.040;2023-02-23T13:48:38;100405.84;;;5.24;59.79
75913;BME280;64592;52.168;21.040;2023-02-23T13:53:58;100392.22;;;5.28;59.34
75913;BME280;64592;52.168;21.040;2023-02-23T13:59:01;100386.09;;;5.26;60.41
75913;BME280;64592;52.168;21.040;2023-02-23T14:04:05;100384.94;;;5.32;59.49
75913;BME280;64592;52.168;21.040;2023-02-23T14:09:19;100381.19;;;5.34;59.57
75913;BME280;64592;52.168;21.040;2023-02-23T14:14:40;100372.88;;;5.40;59.96
75913;BME280;64592;52.168;21.040;2023-02-23T14:19:43;100359.34;;;5.43;59.64
75913;BME280;64592;52.168;21.040;2023-02-23T14:30:27;100355.00;;;5.41;59.33
75913;BME280;64592;52.168;21.040;2023-02-23T14:35:41;100346.16;;;5.40;60.29
75913;BME280;64592;52.168;21.040;2023-02-23T14:40:47;100333.81;;;5.38;60.05
75913;BME280;64592;52.168;21.040;2023-02-23T14:45:53;100331.06;;;5.39;60.37
75913;BME280;64592;52.168;21.040;2023-02-23T14:51:09;100322.00;;;5.42;60.29
75913;BME280;64592;52.168;21.040;2023-02-23T14:56:19;100321.91;;;5.43;60.74
75913;BME280;64592;52.168;21.040;2023-02-23T15:01:32;100314.69;;;5.45;60.62
75913;BME280;64592;52.168;21.040;2023-02-23T15:06:35;100306.81;;;5.42;60.72
75913;BME280;64592;52.168;21.040;2023-02-23T15:11:38;100300.88;;;5.37;60.64
75913;BME280;64592;52.168;21.040;2023-02-23T15:16:43;100302.31;;;5.27;61.42
75913;BME280;64592;52.168;21.040;2023-02-23T15:21:49;100290.88;;;5.25;61.16
75913;BME280;64592;52.168;21.040;2023-02-23T15:26:54;100288.50;;;5.19;61.57
75913;BME280;64592;52.168;21.040;2023-02-23T15:32:10;100286.16;;;5.13;61.74
75913;BME280;64592;52.168;21.040;2023-02-23T15:37:19;100271.06;;;5.12;61.59
75913;BME280;64592;52.168;21.040;2023-02-23T15:42:30;100263.59;;;5.03;61.98
75913;BME280;64592;52.168;21.040;2023-02-23T15:47:35;100265.09;;;4.91;62.31
75913;BME280;64592;52.168;21.040;2023-02-23T15:52:38;100253.19;;;4.81;63.06
75913;BME280;64592;52.168;21.040;2023-02-23T15:57:51;100252.47;;;4.78;63.27
75913;BME280;64592;52.168;21.040;2023-02-23T16:02:54;100254.69;;;4.69;63.08
75913;BME280;64592;52.168;21.040;2023-02-23T16:08:04;100249.63;;;4.65;63.59
75913;BME280;64592;52.168;21.040;2023-02-23T16:13:09;100237.75;;;4.53;63.70
75913;BME280;64592;52.168;21.040;2023-02-23T16:18:14;100242.56;;;4.47;64.09
75913;BME280;64592;52.168;21.040;2023-02-23T16:23:23;100250.63;;;4.45;64.35
75913;BME280;64592;52.168;21.040;2023-02-23T16:28:30;100238.72;;;4.35;64.69
75913;BME280;64592;52.168;21.040;2023-02-23T16:33:41;100238.00;;;4.32;64.97
75913;BME280;64592;52.168;21.040;2023-02-23T16:38:55;100240.06;;;4.26;65.53
75913;BME280;64592;52.168;21.040;2023-02-23T16:44:00;100239.44;;;4.21;65.54
75913;BME280;64592;52.168;21.040;2023-02-23T16:49:01;100240.53;;;4.17;65.96
75913;BME280;64592;52.168;21.040;2023-02-23T16:54:09;100237.19;;;4.14;65.92
75913;BME280;64592;52.168;21.040;2023-02-23T16:59:14;100229.38;;;4.09;66.37
75913;BME280;64592;52.168;21.040;2023-02-23T17:04:20;100213.63;;;4.05;66.59
75913;BME280;64592;52.168;21.040;2023-02-23T17:09:22;100207.69;;;4.00;66.82
75913;BME280;64592;52.168;21.040;2023-02-23T17:14:26;100197.09;;;3.98;66.71
75913;BME280;64592;52.168;21.040;2023-02-23T17:19:31;100201.56;;;3.98;66.88
75913;BME280;64592;52.168;21.040;2023-02-23T17:24:32;100203.28;;;3.99;67.07
75913;BME280;64592;52.168;21.040;2023-02-23T17:29:35;100193.94;;;3.90;66.68
75913;BME280;64592;52.168;21.040;2023-02-23T17:34:37;100188.44;;;3.93;67.02
75913;BME280;64592;52.168;21.040;2023-02-23T17:39:39;100182.41;;;3.89;66.88
75913;BME280;64592;52.168;21.040;2023-02-23T17:44:42;100179.03;;;3.86;67.12
75913;BME280;64592;52.168;21.040;2023-02-23T17:49:44;100163.69;;;3.91;67.14
75913;BME280;64592;52.168;21.040;2023-02-23T17:54:46;100154.03;;;3.88;67.72
75913;BME280;64592;52.168;21.040;2023-02-23T17:59:49;100152.59;;;3.81;67.52
75913;BME280;64592;52.168;21.040;2023-02-23T18:04:51;100135.81;;;3.79;68.27
75913;BME280;64592;52.168;21.040;2023-02-23T18:09:53;100140.28;;;3.79;68.36
75913;BME280;64592;52.168;21.040;2023-02-23T18:14:57;100129.72;;;3.77;68.29
75913;BME280;64592;52.168;21.040;2023-02-23T18:19:59;100125.41;;;3.75;68.81
75913;BME280;64592;52.168;21.040;2023-02-23T18:25:00;100115.59;;;3.75;69.48
75913;BME280;64592;52.168;21.040;2023-02-23T18:30:05;100115.94;;;3.69;69.48
75913;BME280;64592;52.168;21.040;2023-02-23T18:35:07;100105.34;;;3.68;69.57
75913;BME280;64592;52.168;21.040;2023-02-23T18:40:10;100098.22;;;3.68;69.99
75913;BME280;64592;52.168;21.040;2023-02-23T18:45:21;100087.00;;;3.62;70.82
75913;BME280;64592;52.168;21.040;2023-02-23T18:50:23;100082.53;;;3.62;70.69
75913;BME280;64592;52.168;21.040;2023-02-23T18:55:25;100074.75;;;3.58;71.06
75913;BME280;64592;52.168;21.040;2023-02-23T19:00:29;100064.97;;;3.58;70.96
75913;BME280;64592;52.168;21.040;2023-02-23T19:05:33;100056.19;;;3.56;71.35
75913;BME280;64592;52.168;21.040;2023-02-23T19:10:35;100054.63;;;3.52;71.59
75913;BME280;64592;52.168;21.040;2023-02-23T19:15:38;100042.41;;;3.48;71.97
75913;BME280;64592;52.168;21.040;2023-02-23T19:20:40;100042.41;;;3.48;72.09
75913;BME280;64592;52.168;21.040;2023-02-23T19:25:45;100027.25;;;3.48;72.00
75913;BME280;64592;52.168;21.040;2023-02-23T19:30:49;100023.13;;;3.43;72.29
75913;BME280;64592;52.168;21.040;2023-02-23T19:36:03;100014.06;;;3.47;72.17
75913;BME280;64592;52.168;21.040;2023-02-23T19:41:05;100009.81;;;3.43;72.61
75913;BME280;64592;52.168;21.040;2023-02-23T19:46:09;100005.53;;;3.40;72.74
75913;BME280;64592;52.168;21.040;2023-02-23T19:51:12;99984.50;;;3.34;73.30
75913;BME280;64592;52.168;21.040;2023-02-23T19:56:15;100001.44;;;3.33;73.42
75913;BME280;64592;52.168;21.040;2023-02-23T20:01:20;99988.13;;;3.33;72.91
75913;BME280;64592;52.168;21.040;2023-02-23T20:06:24;99977.69;;;3.29;73.58
75913;BME280;64592;52.168;21.040;2023-02-23T20:11:26;99967.22;;;3.26;73.63
75913;BME280;64592;52.168;21.040;2023-02-23T20:16:30;99971.75;;;3.24;73.71
75913;BME280;64592;52.168;21.040;2023-02-23T20:21:33;99972.69;;;3.23;74.20
75913;BME280;64592;52.168;21.040;2023-02-23T20:26:36;99945.50;;;3.16;74.43
75913;BME280;64592;52.168;21.040;2023-02-23T20:31:41;99948.25;;;3.15;74.60
75913;BME280;64592;52.168;21.040;2023-02-23T20:36:49;99943.88;;;3.13;74.18
75913;BME280;64592;52.168;21.040;2023-02-23T20:41:51;99938.47;;;3.15;74.49
75913;BME280;64592;52.168;21.040;2023-02-23T20:46:55;99924.75;;;3.05;74.90
75913;BME280;64592;52.168;21.040;2023-02-23T20:51:56;99924.94;;;3.02;75.08
75913;BME280;64592;52.168;21.040;2023-02-23T20:56:58;99908.16;;;3.00;75.20
75913;BME280;64592;52.168;21.040;2023-02-23T21:02:09;99896.81;;;2.97;75.58
75913;BME280;64592;52.168;21.040;2023-02-23T21:07:13;99885.53;;;2.92;75.50
75913;BME280;64592;52.168;21.040;2023-02-23T21:12:14;99880.53;;;2.86;75.78
75913;BME280;64592;52.168;21.040;2023-02-23T21:17:18;99871.16;;;2.79;76.10
75913;BME280;64592;52.168;21.040;2023-02-23T21:22:19;99876.47;;;2.79;76.64
75913;BME280;64592;52.168;21.040;2023-02-23T21:27:21;99871.31;;;2.76;76.94
75913;BME280;64592;52.168;21.040;2023-02-23T21:32:24;99855.25;;;2.77;76.60
75913;BME280;64592;52.168;21.040;2023-02-23T21:37:30;99862.31;;;2.78;76.64
75913;BME280;64592;52.168;21.040;2023-02-23T21:42:31;99851.06;;;2.73;76.95
75913;BME280;64592;52.168;21.040;2023-02-23T21:47:34;99840.56;;;2.70;76.92
75913;BME280;64592;52.168;21.040;2023-02-23T21:52:36;99832.63;;;2.68;77.04
75913;BME280;64592;52.168;21.040;2023-02-23T21:57:38;99817.78;;;2.64;77.23
75913;BME280;64592;52.168;21.040;2023-02-23T22:02:41;99813.72;;;2.57;77.69
75913;BME280;64592;52.168;21.040;2023-02-23T22:07:49;99803.00;;;2.59;77.53
75913;BME280;64592;52.168;21.040;2023-02-23T22:12:51;99785.25;;;2.59;77.85
75913;BME280;64592;52.168;21.040;2023-02-23T22:17:56;99777.50;;;2.55;77.72
75913;BME280;64592;52.168;21.040;2023-02-23T22:22:58;99775.78;;;2.54;77.98
75913;BME280;64592;52.168;21.040;2023-02-23T22:27:59;99771.31;;;2.54;78.75
75913;BME280;64592;52.168;21.040;2023-02-23T22:33:02;99765.84;;;2.57;78.67
75913;BME280;64592;52.168;21.040;2023-02-23T22:38:04;99754.28;;;2.58;78.64
75913;BME280;64592;52.168;21.040;2023-02-23T22:43:06;99755.13;;;2.59;78.77
75913;BME280;64592;52.168;21.040;2023-02-23T22:48:09;99744.38;;;2.60;78.42
75913;BME280;64592;52.168;21.040;2023-02-23T22:53:11;99742.69;;;2.59;78.71
75913;BME280;64592;52.168;21.040;2023-02-23T22:58:12;99735.66;;;2.58;78.67
75913;BME280;64592;52.168;21.040;2023-02-23T23:03:16;99730.31;;;2.58;78.71
75913;BME280;64592;52.168;21.040;2023-02-23T23:08:17;99717.09;;;2.57;78.81
75913;BME280;64592;52.168;21.040;2023-02-23T23:13:19;99718.91;;;2.56;79.34
75913;BME280;64592;52.168;21.040;2023-02-23T23:18:22;99703.88;;;2.55;79.08
75913;BME280;64592;52.168;21.040;2023-02-23T23:23:27;99702.16;;;2.54;79.10
75913;BME280;64592;52.168;21.040;2023-02-23T23:28:29;99684.47;;;2.53;79.60
75913;BME280;64592;52.168;21.040;2023-02-23T23:33:32;99688.78;;;2.56;79.52
75913;BME280;64592;52.168;21.040;2023-02-23T23:38:33;99678.91;;;2.58;79.83
75913;BME280;64592;52.168;21.040;2023-02-23T23:43:38;99672.66;;;2.59;79.44
75913;BME280;64592;52.168;21.040;2023-02-23T23:48:43;99674.19;;;2.63;79.76
75913;BME280;64592;52.168;21.040;2023-02-23T23:53:45;99668.72;;;2.66;79.62
75913;BME280;64592;52.168;21.040;2023-02-23T23:58:47;99649.06;;;2.68;79.72
